createdAt,value
2024-01-24T13:29:26.065Z,19.07
2024-01-24T13:34:53.301Z,19.13
2024-01-24T13:38:54.602Z,19.22
2024-01-24T13:50:56.359Z,19.13
2024-01-24T13:53:47.639Z,18.93
2024-01-24T13:56:23.200Z,18.85
2024-01-24T13:59:46.587Z,19.00
2024-01-24T14:06:11.521Z,18.94
2024-01-24T14:08:47.641Z,18.89
2024-01-24T14:14:54.847Z,18.86
2024-01-24T14:17:48.040Z,18.93
2024-01-24T14:20:26.867Z,18.80
2024-01-24T14:29:22.284Z,18.84
2024-01-24T14:32:14.769Z,18.84
2024-01-24T14:38:37.948Z,19.01
2024-01-24T14:41:41.734Z,19.09
2024-01-24T14:45:16.738Z,19.21
2024-01-24T14:52:30.787Z,19.04
2024-01-24T14:54:38.832Z,19.12
2024-01-24T15:00:55.601Z,19.23
2024-01-24T15:15:41.895Z,19.39
2024-01-24T15:18:14.816Z,19.47
2024-01-24T15:20:57.830Z,19.44
2024-01-24T15:23:47.396Z,19.42
2024-01-24T15:26:20.143Z,19.45
2024-01-24T15:28:53.403Z,19.36
2024-01-24T15:31:26.224Z,19.48
2024-01-24T15:33:59.224Z,19.38
2024-01-24T15:36:32.169Z,19.50
2024-01-24T15:39:21.951Z,19.37
2024-01-24T15:54:26.572Z,19.32
2024-01-24T15:57:03.688Z,19.33
2024-01-24T15:59:39.345Z,19.41
2024-01-24T16:02:12.055Z,19.32
2024-01-24T16:04:48.635Z,19.19
2024-01-24T16:10:26.966Z,19.21
2024-01-24T16:13:10.248Z,19.32
2024-01-24T16:15:43.035Z,19.26
2024-01-24T16:18:18.669Z,19.16
2024-01-24T16:20:51.326Z,19.21
2024-01-24T16:23:24.045Z,19.18
2024-01-24T16:25:59.427Z,19.17
2024-01-24T16:31:21.070Z,19.10
2024-01-24T16:33:53.985Z,19.21
2024-01-24T16:36:26.797Z,19.16
2024-01-24T16:38:59.621Z,19.08
2024-01-24T16:41:32.430Z,19.11
2024-01-24T16:44:20.755Z,18.98
2024-01-24T16:46:53.831Z,18.98
2024-01-24T16:49:26.726Z,19.01
2024-01-24T16:52:00.318Z,19.12
2024-01-24T16:54:34.476Z,19.11
2024-01-24T16:57:07.450Z,18.95
2024-01-24T16:59:40.227Z,18.94
2024-01-24T17:02:15.459Z,19.01
2024-01-24T17:04:48.471Z,18.93
2024-01-24T17:07:54.723Z,19.01
2024-01-24T17:10:40.528Z,18.89
2024-01-24T17:13:28.540Z,18.93
2024-01-24T17:16:02.951Z,18.91
2024-01-24T17:21:28.240Z,18.77
2024-01-24T17:24:24.641Z,18.82
2024-01-24T17:26:55.628Z,19.18
2024-01-24T17:29:45.513Z,18.93
2024-01-24T17:32:18.383Z,18.83
2024-01-24T17:34:54.229Z,18.73
2024-01-24T17:37:27.089Z,18.78
2024-01-24T17:39:59.975Z,18.77
2024-01-24T17:53:48.333Z,18.72
2024-01-24T17:56:23.912Z,19.00
2024-01-24T17:58:57.423Z,18.76
2024-01-24T18:01:30.240Z,18.64
2024-01-24T18:06:53.116Z,18.55
2024-01-24T18:14:08.732Z,18.68
2024-01-24T18:24:23.574Z,18.64
2024-01-24T18:27:15.468Z,18.88
2024-01-24T18:30:10.284Z,18.74
2024-01-24T18:32:51.684Z,18.88
2024-01-24T18:38:54.246Z,18.69
2024-01-24T18:41:27.539Z,18.41
2024-01-24T18:44:09.307Z,18.50
2024-01-24T18:49:28.995Z,18.42
2024-01-24T19:02:35.918Z,18.36
2024-01-24T19:05:13.963Z,18.34
2024-01-24T19:07:52.679Z,18.42
2024-01-24T19:10:27.702Z,18.39
2024-01-24T19:18:33.568Z,18.45
2024-01-24T19:29:58.295Z,18.34
2024-01-24T19:32:33.693Z,18.38
2024-01-24T19:42:47.652Z,18.47
2024-01-24T19:45:20.628Z,18.36
2024-01-24T19:48:21.487Z,18.19
2024-01-24T20:04:38.524Z,18.37
2024-01-24T20:07:13.655Z,18.27
2024-01-24T20:35:01.886Z,18.11
2024-01-24T20:38:19.012Z,18.30
2024-01-24T20:41:10.233Z,18.10
2024-01-24T20:43:51.240Z,18.24
2024-01-24T20:46:24.105Z,18.15
2024-01-24T20:48:57.095Z,18.07
2024-01-24T20:51:30.039Z,18.02
2024-01-24T20:54:27.652Z,18.16
2024-01-24T20:57:00.546Z,18.04
2024-01-24T20:59:55.578Z,18.05
2024-01-24T21:02:28.584Z,18.03
2024-01-24T21:05:04.397Z,17.96
2024-01-24T21:08:10.271Z,18.02
2024-01-24T21:11:51.148Z,18.11
2024-01-24T21:15:05.178Z,18.10
2024-01-24T21:26:55.202Z,17.95
2024-01-24T21:29:33.496Z,18.12
2024-01-24T21:32:29.237Z,18.01
2024-01-24T21:35:12.484Z,18.06
2024-01-24T21:38:12.000Z,18.16
2024-01-24T21:40:55.757Z,18.05
2024-01-24T21:43:54.889Z,18.17
2024-01-24T21:46:27.855Z,18.06
2024-01-24T21:49:04.033Z,17.92
2024-01-24T21:51:37.039Z,17.85
2024-01-24T21:54:09.853Z,17.89
2024-01-24T21:56:42.964Z,17.94
2024-01-24T21:59:16.791Z,17.88
2024-01-24T22:02:38.724Z,18.08
2024-01-24T22:08:08.498Z,17.92
2024-01-24T22:10:41.234Z,17.92
2024-01-24T22:13:15.475Z,18.04
2024-01-24T22:15:48.368Z,18.11
2024-01-24T22:21:11.372Z,18.05
2024-01-24T22:23:44.646Z,18.20
2024-01-24T22:30:20.685Z,18.27
2024-01-24T22:33:25.850Z,18.36
2024-01-24T22:39:44.521Z,18.45
2024-01-24T22:42:43.534Z,18.39
2024-01-24T22:45:31.632Z,18.45
2024-01-24T22:50:59.167Z,18.61
2024-01-24T22:53:33.252Z,18.50
2024-01-24T22:56:09.010Z,18.86
2024-01-24T22:58:41.762Z,18.59
2024-01-24T23:01:43.257Z,18.56
2024-01-24T23:04:19.004Z,18.63
2024-01-24T23:06:52.040Z,18.52
2024-01-24T23:09:24.967Z,18.58
2024-01-24T23:11:57.742Z,18.52
2024-01-24T23:14:30.592Z,18.54
2024-01-24T23:17:12.681Z,18.61
2024-01-24T23:19:45.675Z,18.58
2024-01-24T23:22:19.663Z,18.48
2024-01-24T23:24:52.593Z,18.50
2024-01-24T23:27:31.783Z,18.49
2024-01-24T23:31:22.091Z,18.59
2024-01-24T23:35:01.678Z,18.62
